Rechercher aéroport 
image banner adimage banner adimage banner ad
image banner ad

8CA9 - Kgtv-10 Parking Lot

Situé à San Diego, United States

ICAO - 8CA9, IATA -

Données fournies par Airmate  

Information générale

Coordonnées: N32°43'13" W117°5'51"
Élévation : 200 feet MSL.
Variation magnétique : 13° East
Voir autres Aéroports à California

Données opérationnelles

Special qualification required
Heure actuelle UTC:
Heure actuelle locale:
Météo à : KSAN - San Diego Intl ( 9 km )
METAR: KSAN 292051Z 30009KT 10SM FEW010 SCT050 SCT250 25/18 A2991 RMK AO2 SLP127 T02500178 58007
TAF: KSAN 292042Z 2921/3024 29011G17KT P6SM FEW010 SCT250 FM300300 30005KT P6SM SCT010 FM300700 VRB04KT P6SM BKN008 FM301600 VRB04KT P6SM SCT010 FM302000 29011KT P6SM FEW010 SCT150
Voir NOTAMs / SUP AIP / TFR affectant cet aéroport [VIEW]
Fréquences de communication: [VIEW]

Pistes:

Coordonnées de l'aéroport

Adresse: San Diego United States

Vue satellite de 8CA9